createdAt,value
2022-08-25T00:00:58.113Z,5.85
2022-08-25T00:03:30.489Z,6.42
2022-08-25T00:06:06.734Z,6.60
2022-08-25T00:11:13.943Z,7.00
2022-08-25T00:13:48.412Z,5.47
2022-08-25T00:18:55.528Z,6.20
2022-08-25T00:21:29.333Z,5.95
2022-08-25T00:24:02.840Z,6.05
2022-08-25T00:26:39.005Z,5.97
2022-08-25T00:29:12.068Z,6.45
2022-08-25T00:31:45.378Z,6.85
2022-08-25T00:34:20.381Z,6.50
2022-08-25T00:36:52.827Z,6.08
2022-08-25T00:39:26.107Z,5.80
2022-08-25T00:41:59.714Z,6.92
2022-08-25T00:44:33.991Z,5.60
2022-08-25T00:47:06.915Z,5.85
2022-08-25T00:49:41.898Z,5.25
2022-08-25T00:52:19.881Z,7.17
2022-08-25T00:54:55.062Z,6.03
2022-08-25T00:57:34.488Z,5.22
2022-08-25T01:00:12.814Z,6.10
2022-08-25T01:02:45.105Z,5.53
2022-08-25T01:05:18.324Z,5.37
2022-08-25T01:07:51.639Z,5.97
2022-08-25T01:10:25.895Z,5.70
2022-08-25T01:13:01.009Z,6.00
2022-08-25T01:15:33.364Z,5.17
2022-08-25T01:18:05.667Z,5.65
2022-08-25T01:20:38.039Z,5.30
2022-08-25T01:23:10.875Z,5.70
2022-08-25T01:26:04.071Z,6.00
2022-08-25T01:28:36.564Z,5.60
2022-08-25T01:31:23.876Z,6.28
2022-08-25T01:33:42.806Z,6.42
2022-08-25T01:36:16.487Z,5.62
2022-08-25T01:38:48.987Z,6.28
2022-08-25T01:41:32.840Z,5.97
2022-08-25T01:44:08.793Z,5.92
2022-08-25T01:46:42.580Z,5.90
2022-08-25T01:49:14.600Z,5.70
2022-08-25T01:51:49.169Z,5.62
2022-08-25T01:56:52.288Z,5.58
2022-08-25T01:59:25.778Z,5.40
2022-08-25T02:01:59.952Z,5.92
2022-08-25T02:04:33.059Z,6.08
2022-08-25T02:07:08.894Z,5.78
2022-08-25T02:09:41.220Z,5.40
2022-08-25T02:12:13.750Z,5.70
2022-08-25T02:14:47.512Z,5.62
2022-08-25T02:17:19.651Z,6.30
2022-08-25T02:19:51.926Z,5.97
2022-08-25T02:22:24.525Z,6.12
2022-08-25T02:24:56.876Z,6.42
2022-08-25T02:27:28.800Z,5.87
2022-08-25T02:30:00.930Z,6.80
2022-08-25T02:32:33.991Z,6.25
2022-08-25T02:35:06.812Z,6.87
2022-08-25T02:37:39.070Z,6.55
2022-08-25T02:40:11.962Z,5.75
2022-08-25T02:42:44.885Z,6.30
2022-08-25T02:45:17.129Z,5.78
2022-08-25T02:47:49.938Z,5.65
2022-08-25T02:50:22.206Z,6.22
2022-08-25T02:52:55.136Z,5.85
2022-08-25T02:55:27.203Z,5.85
2022-08-25T02:57:59.216Z,6.50
2022-08-25T03:00:31.482Z,5.85
2022-08-25T03:03:04.846Z,8.15
2022-08-25T03:05:36.861Z,5.62
2022-08-25T03:08:11.144Z,6.50
2022-08-25T03:10:43.324Z,5.90
2022-08-25T03:13:16.796Z,6.47
2022-08-25T03:15:49.457Z,5.72
2022-08-25T03:18:23.281Z,5.85
2022-08-25T03:20:57.021Z,5.90
2022-08-25T03:23:29.767Z,6.15
2022-08-25T03:26:19.436Z,6.53
2022-08-25T03:28:52.129Z,7.03
2022-08-25T03:31:28.008Z,5.97
2022-08-25T03:34:01.235Z,6.60
2022-08-25T03:36:33.389Z,6.90
2022-08-25T03:39:06.056Z,6.83
2022-08-25T03:41:38.270Z,6.00
2022-08-25T03:44:10.893Z,6.08
2022-08-25T03:46:45.628Z,7.03
2022-08-25T03:51:55.491Z,5.78
2022-08-25T03:54:28.190Z,6.60
2022-08-25T03:57:00.401Z,6.47
2022-08-25T03:59:32.426Z,6.15
2022-08-25T04:02:04.581Z,7.33
2022-08-25T04:04:36.839Z,5.92
2022-08-25T04:07:09.174Z,6.17
2022-08-25T04:09:41.224Z,6.87
2022-08-25T04:12:13.360Z,6.00
2022-08-25T04:14:45.692Z,6.15
2022-08-25T04:17:17.921Z,6.90
2022-08-25T04:19:51.064Z,7.25
2022-08-25T04:22:24.097Z,7.17
2022-08-25T04:24:56.537Z,6.00
2022-08-25T04:27:28.868Z,6.47
2022-08-25T04:30:01.214Z,6.05
2022-08-25T04:32:33.762Z,6.78
2022-08-25T04:35:06.653Z,5.97
2022-08-25T04:37:38.665Z,6.85
2022-08-25T04:40:11.732Z,5.85
2022-08-25T04:42:45.386Z,6.80
2022-08-25T04:45:19.532Z,6.75
2022-08-25T04:47:54.974Z,5.80
2022-08-25T04:50:25.685Z,6.37
2022-08-25T04:52:57.998Z,6.20
2022-08-25T04:55:30.252Z,6.08
2022-08-25T04:58:03.195Z,7.03
2022-08-25T05:00:37.511Z,7.25
2022-08-25T05:03:10.091Z,6.87
2022-08-25T05:05:42.260Z,6.75
2022-08-25T05:08:14.523Z,6.60
2022-08-25T05:10:47.265Z,8.00
2022-08-25T05:13:19.544Z,7.20
2022-08-25T05:16:00.121Z,6.92
2022-08-25T05:18:33.800Z,7.15
2022-08-25T05:21:08.770Z,6.25
2022-08-25T05:23:42.275Z,7.70
2022-08-25T05:26:22.578Z,8.00
2022-08-25T05:28:56.754Z,6.58
2022-08-25T05:31:30.245Z,7.33
2022-08-25T05:34:10.551Z,7.15
2022-08-25T05:36:43.674Z,6.53
2022-08-25T05:39:16.037Z,7.87
2022-08-25T05:41:48.109Z,6.95
2022-08-25T05:44:21.300Z,6.12
2022-08-25T05:46:54.056Z,7.10
2022-08-25T05:49:27.852Z,6.67
2022-08-25T05:52:00.090Z,6.20
2022-08-25T05:54:32.175Z,6.08
2022-08-25T05:57:04.376Z,6.35
2022-08-25T05:59:36.540Z,5.12
2022-08-25T06:02:26.815Z,6.03
2022-08-25T06:04:59.099Z,5.83
2022-08-25T06:07:33.528Z,6.60
2022-08-25T06:10:08.271Z,6.28
2022-08-25T06:12:44.721Z,5.75
2022-08-25T06:15:19.853Z,6.78
2022-08-25T06:17:56.729Z,6.70
2022-08-25T06:20:29.677Z,6.22
2022-08-25T06:23:01.838Z,6.50
2022-08-25T06:25:34.105Z,5.72
2022-08-25T06:28:06.560Z,5.75
2022-08-25T06:30:40.971Z,5.97
2022-08-25T06:33:13.011Z,6.08
2022-08-25T06:35:46.124Z,5.10
2022-08-25T06:38:18.320Z,6.15
2022-08-25T06:40:52.211Z,5.62
2022-08-25T06:43:24.746Z,6.08
2022-08-25T06:45:56.931Z,5.70
2022-08-25T06:48:29.603Z,5.45
2022-08-25T06:51:03.677Z,4.67
2022-08-25T06:53:36.260Z,5.05
2022-08-25T06:56:08.963Z,4.83
2022-08-25T06:58:41.545Z,4.70
2022-08-25T07:01:21.928Z,4.90
2022-08-25T07:03:59.874Z,4.67
2022-08-25T07:06:36.120Z,4.55
2022-08-25T07:09:10.559Z,4.37
2022-08-25T07:14:17.105Z,5.08
2022-08-25T07:16:50.255Z,5.53
2022-08-25T07:19:22.849Z,4.73
2022-08-25T07:21:55.677Z,4.35
2022-08-25T07:24:27.684Z,5.08
2022-08-25T07:26:59.791Z,5.90
2022-08-25T07:29:34.008Z,5.30
2022-08-25T07:32:07.275Z,4.87
2022-08-25T07:34:58.457Z,5.37
2022-08-25T07:37:47.935Z,5.45
2022-08-25T07:40:05.901Z,4.70
2022-08-25T07:42:38.287Z,4.67
2022-08-25T07:45:11.719Z,4.35
2022-08-25T07:47:44.284Z,4.85
2022-08-25T07:50:17.652Z,4.30
2022-08-25T07:52:59.086Z,6.05
2022-08-25T07:55:26.107Z,5.25
2022-08-25T07:58:01.309Z,5.37
2022-08-25T08:00:36.657Z,5.70
2022-08-25T08:03:15.955Z,4.30
2022-08-25T08:05:44.028Z,5.10
2022-08-25T08:08:17.115Z,4.22
2022-08-25T08:11:04.909Z,4.37
2022-08-25T08:13:26.760Z,3.75
2022-08-25T08:16:00.212Z,4.30
2022-08-25T08:18:33.243Z,5.10
2022-08-25T08:21:05.758Z,5.20
2022-08-25T08:23:39.133Z,5.10
2022-08-25T08:26:11.170Z,4.20
2022-08-25T08:28:43.650Z,3.77
2022-08-25T08:31:17.398Z,4.78
2022-08-25T08:33:51.942Z,3.85
2022-08-25T08:36:25.998Z,4.47
2022-08-25T08:38:58.384Z,4.00
2022-08-25T08:42:09.616Z,5.28
2022-08-25T08:44:38.730Z,4.55
2022-08-25T08:47:23.354Z,4.95
2022-08-25T08:50:01.507Z,4.37
2022-08-25T08:52:59.354Z,4.28
2022-08-25T08:55:42.502Z,3.70
2022-08-25T08:58:30.376Z,4.33
2022-08-25T09:01:03.273Z,4.75
2022-08-25T09:03:44.355Z,4.17
2022-08-25T09:06:23.672Z,4.35
2022-08-25T09:08:58.707Z,4.17
2022-08-25T09:11:49.140Z,4.62
2022-08-25T09:14:30.393Z,4.45
2022-08-25T09:17:31.391Z,4.83
2022-08-25T09:20:39.862Z,4.55
2022-08-25T09:23:24.149Z,4.47
2022-08-25T09:26:12.266Z,14.73
2022-08-25T09:28:55.035Z,4.47
2022-08-25T09:31:30.594Z,4.17
2022-08-25T09:34:05.288Z,3.60
2022-08-25T09:36:38.036Z,3.85
2022-08-25T09:39:10.309Z,3.42
2022-08-25T09:41:56.387Z,4.20
2022-08-25T09:44:32.057Z,4.22
2022-08-25T09:47:11.003Z,4.30
2022-08-25T09:49:47.148Z,5.30
2022-08-25T09:52:34.752Z,4.65
2022-08-25T09:55:16.242Z,4.10
2022-08-25T09:57:52.955Z,3.55
2022-08-25T10:00:29.669Z,3.83
2022-08-25T10:03:24.861Z,4.37
2022-08-25T10:06:00.693Z,3.90
2022-08-25T10:08:46.098Z,4.58
2022-08-25T10:11:40.515Z,4.17
2022-08-25T10:14:21.622Z,4.40
2022-08-25T10:16:54.643Z,3.40
2022-08-25T10:19:30.642Z,3.62
2022-08-25T10:22:11.565Z,3.22
2022-08-25T10:24:44.383Z,3.90
2022-08-25T10:27:31.707Z,3.30
2022-08-25T10:30:11.062Z,3.50
2022-08-25T10:32:52.451Z,3.80
2022-08-25T10:35:31.889Z,4.03
2022-08-25T10:38:27.200Z,4.22
2022-08-25T10:41:12.635Z,4.17
2022-08-25T10:44:10.929Z,4.40
2022-08-25T10:46:49.005Z,4.00
2022-08-25T10:49:23.699Z,4.03
2022-08-25T10:52:04.659Z,3.72
2022-08-25T10:54:39.511Z,3.87
2022-08-25T10:57:32.158Z,5.25
2022-08-25T11:00:14.691Z,4.50
2022-08-25T11:03:06.329Z,3.70
2022-08-25T11:06:00.157Z,4.15
2022-08-25T11:08:43.891Z,4.30
2022-08-25T11:11:40.249Z,4.67
2022-08-25T11:14:15.442Z,3.95
2022-08-25T11:17:06.140Z,4.03
2022-08-25T11:19:44.005Z,3.90
2022-08-25T11:22:22.107Z,3.83
2022-08-25T11:25:15.562Z,4.28
2022-08-25T11:28:16.337Z,4.00
2022-08-25T11:30:49.759Z,4.37
2022-08-25T11:33:23.622Z,4.00
2022-08-25T11:35:59.026Z,4.75
2022-08-25T11:39:01.401Z,3.70
2022-08-25T11:41:56.147Z,4.03
2022-08-25T11:44:55.093Z,3.98
2022-08-25T11:47:41.726Z,6.97
2022-08-25T11:50:35.122Z,5.28
2022-08-25T11:53:28.146Z,4.85
2022-08-25T11:56:00.858Z,4.08
2022-08-25T11:58:49.699Z,4.00
2022-08-25T12:01:44.361Z,4.12
2022-08-25T12:04:34.985Z,4.15
2022-08-25T12:07:13.567Z,4.08
2022-08-25T12:09:55.307Z,5.15
2022-08-25T12:12:34.269Z,5.12
2022-08-25T12:15:27.496Z,4.80
2022-08-25T12:18:23.828Z,4.75
2022-08-25T12:21:01.064Z,4.67
2022-08-25T12:23:39.887Z,4.20
2022-08-25T12:26:27.937Z,5.83
2022-08-25T12:29:13.098Z,4.00
2022-08-25T12:34:55.287Z,4.20
2022-08-25T12:37:27.877Z,4.10
2022-08-25T12:40:05.133Z,4.17
2022-08-25T12:42:45.594Z,4.00
2022-08-25T12:45:35.723Z,3.30
2022-08-25T12:48:32.260Z,3.62
2022-08-25T12:51:10.590Z,3.58
2022-08-25T12:53:48.913Z,3.92
2022-08-25T12:56:39.578Z,3.35
2022-08-25T12:59:18.873Z,3.50
2022-08-25T13:02:09.662Z,3.80
2022-08-25T13:04:51.776Z,3.22
2022-08-25T13:07:39.984Z,3.83
2022-08-25T13:10:31.121Z,3.55
2022-08-25T13:13:12.095Z,3.85
2022-08-25T13:15:48.774Z,3.58
2022-08-25T13:18:28.932Z,3.83
2022-08-25T13:21:23.694Z,3.80
2022-08-25T13:24:01.336Z,7.12
2022-08-25T13:26:36.109Z,3.80
2022-08-25T13:29:12.823Z,3.75
2022-08-25T13:32:01.480Z,4.03
2022-08-25T13:34:39.377Z,3.85
2022-08-25T13:37:32.576Z,3.20
2022-08-25T13:40:18.134Z,4.60
2022-08-25T13:42:55.981Z,3.95
2022-08-25T13:45:30.066Z,3.98
2022-08-25T13:48:04.139Z,4.53
2022-08-25T13:50:40.454Z,4.35
2022-08-25T13:53:26.288Z,3.30
2022-08-25T13:56:01.307Z,3.67
2022-08-25T13:58:45.011Z,3.90
2022-08-25T14:01:22.396Z,4.30
2022-08-25T14:03:49.818Z,3.98
2022-08-25T14:06:28.305Z,4.28
2022-08-25T14:09:04.013Z,5.53
2022-08-25T14:11:45.350Z,4.30
2022-08-25T14:14:30.768Z,4.15
2022-08-25T14:17:16.378Z,4.10
2022-08-25T14:19:42.950Z,4.25
2022-08-25T14:22:17.023Z,4.65
2022-08-25T14:24:49.015Z,3.90
2022-08-25T14:27:23.118Z,4.40
2022-08-25T14:29:55.379Z,3.83
2022-08-25T14:32:27.678Z,8.28
2022-08-25T14:35:03.764Z,5.35
2022-08-25T14:37:34.762Z,4.40
2022-08-25T14:40:07.632Z,4.17
2022-08-25T14:42:42.119Z,4.08
2022-08-25T14:45:15.457Z,3.80
2022-08-25T14:47:49.856Z,3.47
2022-08-25T14:50:22.724Z,5.70
2022-08-25T14:52:58.263Z,3.98
2022-08-25T14:55:31.526Z,4.65
2022-08-25T14:58:04.690Z,5.72
2022-08-25T15:00:41.585Z,5.08
2022-08-25T15:03:19.692Z,5.25
2022-08-25T15:05:52.626Z,5.15
2022-08-25T15:08:43.691Z,4.67
2022-08-25T15:11:15.871Z,4.30
2022-08-25T15:13:50.185Z,5.25
2022-08-25T15:16:35.389Z,4.70
2022-08-25T15:19:10.613Z,4.28
2022-08-25T15:21:44.765Z,4.53
2022-08-25T15:24:18.083Z,5.20
2022-08-25T15:29:29.884Z,4.10
2022-08-25T15:32:04.081Z,5.53
2022-08-25T15:34:38.619Z,4.55
2022-08-25T15:37:14.939Z,5.37
2022-08-25T15:39:49.328Z,4.45
2022-08-25T15:42:21.809Z,5.12
2022-08-25T15:44:54.305Z,4.78
2022-08-25T15:47:27.763Z,4.70
2022-08-25T15:50:07.657Z,5.45
2022-08-25T15:52:47.610Z,4.60
2022-08-25T15:55:14.694Z,4.50
2022-08-25T15:57:47.631Z,4.67
2022-08-25T16:00:22.141Z,4.97
2022-08-25T16:02:54.277Z,4.40
2022-08-25T16:05:26.545Z,4.72
2022-08-25T16:07:59.429Z,5.30
2022-08-25T16:10:38.420Z,5.00
2022-08-25T16:13:12.358Z,4.50
2022-08-25T16:15:47.782Z,4.22
2022-08-25T16:18:22.720Z,4.30
2022-08-25T16:20:54.961Z,5.80
2022-08-25T16:23:27.415Z,4.78
2022-08-25T16:25:59.875Z,5.00
2022-08-25T16:28:33.093Z,4.83
2022-08-25T16:31:06.028Z,4.58
2022-08-25T16:33:39.900Z,5.17
2022-08-25T16:36:15.489Z,4.87
2022-08-25T16:38:49.075Z,4.87
2022-08-25T16:41:27.252Z,4.50
2022-08-25T16:43:59.753Z,4.80
2022-08-25T16:46:32.077Z,4.85
2022-08-25T16:49:06.471Z,4.90
2022-08-25T16:51:41.239Z,4.58
2022-08-25T16:54:33.428Z,5.42
2022-08-25T16:57:05.939Z,4.75
2022-08-25T16:59:38.252Z,4.47
2022-08-25T17:02:10.912Z,4.72
2022-08-25T17:04:43.393Z,4.83
2022-08-25T17:07:23.592Z,5.12
2022-08-25T17:12:23.395Z,5.42
2022-08-25T17:14:57.606Z,5.67
2022-08-25T17:17:30.990Z,6.12
2022-08-25T17:20:05.097Z,5.37
2022-08-25T17:22:37.210Z,6.60
2022-08-25T17:25:11.097Z,7.53
2022-08-25T17:27:43.469Z,7.47
2022-08-25T17:30:15.828Z,7.40
2022-08-25T17:32:51.116Z,8.73
2022-08-25T17:35:23.009Z,10.55
2022-08-25T17:37:55.657Z,9.15
2022-08-25T17:40:28.011Z,9.00
2022-08-25T17:43:00.797Z,10.00
2022-08-25T17:45:33.570Z,9.30
2022-08-25T17:48:06.639Z,9.18
2022-08-25T17:50:39.782Z,9.17
2022-08-25T17:53:13.665Z,8.73
2022-08-25T17:55:47.976Z,9.00
2022-08-25T17:58:20.338Z,8.10
2022-08-25T18:00:52.745Z,11.83
2022-08-25T18:03:25.634Z,9.30
2022-08-25T18:05:59.222Z,8.98
2022-08-25T18:08:35.126Z,8.75
2022-08-25T18:11:06.736Z,8.43
2022-08-25T18:13:42.611Z,9.10
2022-08-25T18:16:15.574Z,8.50
2022-08-25T18:18:48.099Z,8.35
2022-08-25T18:21:21.331Z,9.05
2022-08-25T18:23:56.016Z,9.35
2022-08-25T18:26:28.519Z,8.93
2022-08-25T18:29:00.831Z,9.75
2022-08-25T18:31:33.462Z,9.78
2022-08-25T18:34:07.385Z,10.43
2022-08-25T18:36:39.738Z,9.88
2022-08-25T18:39:34.452Z,9.48
2022-08-25T18:42:06.432Z,10.88
2022-08-25T18:44:38.963Z,9.63
2022-08-25T18:47:12.238Z,10.32
2022-08-25T18:49:44.661Z,9.53
2022-08-25T18:52:18.062Z,10.80
2022-08-25T18:54:50.750Z,10.78
2022-08-25T18:57:24.694Z,10.98
2022-08-25T18:59:56.700Z,10.75
2022-08-25T19:02:31.713Z,10.60
2022-08-25T19:05:07.761Z,11.35
2022-08-25T19:07:40.237Z,10.85
2022-08-25T19:10:12.288Z,10.35
2022-08-25T19:12:44.839Z,11.12
2022-08-25T19:15:17.292Z,11.55
2022-08-25T19:17:49.612Z,10.43
2022-08-25T19:20:23.309Z,9.38
2022-08-25T19:22:55.596Z,8.88
2022-08-25T19:25:33.223Z,9.28
2022-08-25T19:28:02.533Z,9.20
2022-08-25T19:30:35.773Z,9.30
2022-08-25T19:33:11.688Z,10.00
2022-08-25T19:35:50.300Z,10.82
2022-08-25T19:38:33.455Z,9.60
2022-08-25T19:40:59.767Z,9.25
2022-08-25T19:43:31.863Z,8.73
2022-08-25T19:46:04.068Z,8.73
2022-08-25T19:48:37.322Z,8.40
2022-08-25T19:51:11.768Z,10.38
2022-08-25T19:53:44.570Z,9.33
2022-08-25T19:56:16.696Z,9.23
2022-08-25T19:58:49.400Z,9.15
2022-08-25T20:01:22.470Z,8.18
2022-08-25T20:04:10.577Z,7.70
2022-08-25T20:06:43.109Z,8.55
2022-08-25T20:09:36.071Z,8.10
2022-08-25T20:11:51.796Z,8.58
2022-08-25T20:14:23.990Z,8.75
2022-08-25T20:16:56.250Z,8.58
2022-08-25T20:19:28.589Z,8.70
2022-08-25T20:22:00.761Z,9.35
2022-08-25T20:24:50.984Z,8.78
2022-08-25T20:27:26.691Z,9.28
2022-08-25T20:29:59.727Z,9.85
2022-08-25T20:32:35.695Z,9.48
2022-08-25T20:35:10.331Z,9.25
2022-08-25T20:37:46.056Z,9.13
2022-08-25T20:40:25.513Z,9.53
2022-08-25T20:42:57.872Z,10.35
2022-08-25T20:45:30.116Z,10.80
2022-08-25T20:48:02.203Z,10.80
2022-08-25T20:50:34.685Z,10.68
2022-08-25T20:53:10.166Z,9.85
2022-08-25T20:55:43.656Z,10.13
2022-08-25T20:58:16.879Z,9.98
2022-08-25T21:00:49.033Z,9.08
2022-08-25T21:03:21.257Z,9.93
2022-08-25T21:05:53.588Z,10.60
2022-08-25T21:08:26.210Z,10.20
2022-08-25T21:10:58.269Z,10.20
2022-08-25T21:13:32.249Z,10.25
2022-08-25T21:16:05.706Z,12.90
2022-08-25T21:18:38.797Z,12.15
2022-08-25T21:21:15.236Z,11.43
2022-08-25T21:23:50.971Z,11.12
2022-08-25T21:29:03.826Z,11.53
2022-08-25T21:31:37.083Z,11.75
2022-08-25T21:34:13.465Z,10.95
2022-08-25T21:36:46.173Z,10.68
2022-08-25T21:39:18.927Z,10.60
2022-08-25T21:41:51.045Z,11.35
2022-08-25T21:44:25.646Z,12.68
2022-08-25T21:46:58.367Z,11.68
2022-08-25T21:49:30.734Z,12.03
2022-08-25T21:52:04.753Z,12.15
2022-08-25T21:54:37.727Z,13.00
2022-08-25T21:57:09.736Z,11.95
2022-08-25T21:59:43.524Z,12.98
2022-08-25T22:02:20.538Z,11.63
2022-08-25T22:04:54.950Z,13.10
2022-08-25T22:07:28.116Z,12.23
2022-08-25T22:10:01.834Z,12.05
2022-08-25T22:12:34.000Z,11.57
2022-08-25T22:15:07.163Z,13.05
2022-08-25T22:17:41.213Z,13.10
2022-08-25T22:20:15.456Z,14.18
2022-08-25T22:22:48.215Z,12.55
2022-08-25T22:25:20.426Z,12.40
2022-08-25T22:27:56.442Z,13.78
2022-08-25T22:30:28.367Z,12.98
2022-08-25T22:33:00.816Z,12.82
2022-08-25T22:35:35.238Z,12.47
2022-08-25T22:38:12.398Z,13.55
2022-08-25T22:43:14.165Z,13.05
2022-08-25T22:45:46.555Z,12.47
2022-08-25T22:48:18.647Z,12.40
2022-08-25T22:50:50.678Z,12.73
2022-08-25T22:53:24.369Z,12.85
2022-08-25T22:55:59.150Z,12.25
2022-08-25T22:58:31.142Z,14.13
2022-08-25T23:01:03.890Z,12.95
2022-08-25T23:03:36.392Z,13.13
2022-08-25T23:06:22.121Z,13.35
2022-08-25T23:08:52.589Z,12.37
2022-08-25T23:11:28.883Z,12.93
2022-08-25T23:14:02.526Z,11.70
2022-08-25T23:16:34.958Z,12.80
2022-08-25T23:19:07.487Z,11.78
2022-08-25T23:21:56.975Z,11.38
2022-08-25T23:24:30.982Z,11.93
2022-08-25T23:27:05.092Z,12.63
2022-08-25T23:29:39.969Z,12.05
2022-08-25T23:32:14.472Z,12.70
2022-08-25T23:34:47.379Z,12.95
2022-08-25T23:37:19.580Z,12.40
2022-08-25T23:39:51.758Z,12.60
2022-08-25T23:42:23.915Z,12.10
2022-08-25T23:44:56.127Z,13.38
2022-08-25T23:47:28.551Z,12.47
2022-08-25T23:50:00.800Z,12.63
2022-08-25T23:52:33.536Z,14.00
2022-08-25T23:55:06.527Z,13.53
2022-08-25T23:57:39.639Z,12.33
